To NAV CANADA Home Page Login to a new session Search on AWWS site Feedback and Comments Disclaimer Vers la page française équivalente Tips FAQ What's new on the site To the Forecasts and Observations / NOTAM section To "File a Flight Plan" website Publications and other links Update of the User's profile FIC Telephone Numbers My Weather Data Folder Route Weather Data Regional Weather Data Local Weather Data To the Forecasts and Observations / NOTAM section
Request Generated 03/28/2017 at 02:15:40 UTC . Weather information available at that time is displayed.

METAR/TAF

THUNDER BAY/ON    (show WxCam)

METAR CYQT 280200Z VRB02KT 15SM FEW020 01/M02 A3001 RMK ST1 SLP173=
SPECI CYQT 280112Z 05004KT 15SM FEW180 02/M01 A2999 RMK AC1 SLP168=
METAR CYQT 280100Z 05005KT 15SM FEW180 03/M01 A2999 RMK AC1 SLP167=
METAR CYQT 280000Z 03005KT 20SM FEW200 06/00 A2998 RMK CI1 SLP161=

TAF CYQT 280140Z 2802/2814 04005KT P6SM FEW180
FM280600 VRB03KT P6SM BKN080
RMK NXT FCST BY 280800Z=
Your time UTC time
Weather data provided by Environment Canada and NAV CANADA